sensor_id;sensor_type;location;lat;lon;timestamp;pressure;altitude;pressure_sealevel;temperature;humidity
72640;BME280;60683;51.730;8.762;2024-03-02T00:03:01;99149.84;;;6.27;100.00
72640;BME280;60683;51.730;8.762;2024-03-02T00:05:49;99154.03;;;6.23;100.00
72640;BME280;60683;51.730;8.762;2024-03-02T00:08:34;99143.81;;;6.20;100.00
72640;BME280;60683;51.730;8.762;2024-03-02T00:11:21;99146.13;;;6.16;100.00
72640;BME280;60683;51.730;8.762;2024-03-02T00:14:07;99147.72;;;6.06;100.00
72640;BME280;60683;51.730;8.762;2024-03-02T00:16:54;99150.75;;;6.09;100.00
72640;BME280;60683;51.730;8.762;2024-03-02T00:19:41;99147.94;;;6.04;100.00
72640;BME280;60683;51.730;8.762;2024-03-02T00:22:26;99136.69;;;6.02;100.00
72640;BME280;60683;51.730;8.762;2024-03-02T00:25:12;99129.72;;;6.01;100.00
72640;BME280;60683;51.730;8.762;2024-03-02T00:27:58;99135.75;;;5.96;100.00
72640;BME280;60683;51.730;8.762;2024-03-02T00:30:51;99131.59;;;6.01;100.00
72640;BME280;60683;51.730;8.762;2024-03-02T00:33:41;99129.97;;;6.00;100.00
72640;BME280;60683;51.730;8.762;2024-03-02T00:36:27;99135.06;;;6.01;100.00
72640;BME280;60683;51.730;8.762;2024-03-02T00:39:12;99130.78;;;6.00;100.00
72640;BME280;60683;51.730;8.762;2024-03-02T00:42:00;99122.50;;;5.90;100.00
72640;BME280;60683;51.730;8.762;2024-03-02T00:44:46;99119.50;;;5.98;100.00
72640;BME280;60683;51.730;8.762;2024-03-02T00:47:32;99123.44;;;5.95;100.00
72640;BME280;60683;51.730;8.762;2024-03-02T00:50:18;99122.84;;;5.93;100.00
72640;BME280;60683;51.730;8.762;2024-03-02T00:53:04;99118.41;;;5.87;100.00
72640;BME280;60683;51.730;8.762;2024-03-02T00:55:49;99109.16;;;5.90;100.00
72640;BME280;60683;51.730;8.762;2024-03-02T00:58:35;99099.13;;;6.04;100.00
72640;BME280;60683;51.730;8.762;2024-03-02T01:01:22;99097.72;;;6.01;100.00
72640;BME280;60683;51.730;8.762;2024-03-02T01:04:08;99099.78;;;5.99;100.00
72640;BME280;60683;51.730;8.762;2024-03-02T01:06:53;99105.72;;;6.01;100.00
72640;BME280;60683;51.730;8.762;2024-03-02T01:09:38;99109.28;;;5.95;100.00
72640;BME280;60683;51.730;8.762;2024-03-02T01:12:24;99105.97;;;5.81;100.00
72640;BME280;60683;51.730;8.762;2024-03-02T01:15:10;99107.81;;;5.81;100.00
72640;BME280;60683;51.730;8.762;2024-03-02T01:17:56;99119.66;;;5.85;100.00
72640;BME280;60683;51.730;8.762;2024-03-02T01:20:42;99113.97;;;5.70;100.00
72640;BME280;60683;51.730;8.762;2024-03-02T01:23:27;99125.88;;;5.67;100.00
72640;BME280;60683;51.730;8.762;2024-03-02T01:26:13;99122.19;;;5.68;100.00
72640;BME280;60683;51.730;8.762;2024-03-02T01:28:58;99115.03;;;5.50;100.00
72640;BME280;60683;51.730;8.762;2024-03-02T01:31:44;99108.31;;;5.48;100.00
72640;BME280;60683;51.730;8.762;2024-03-02T01:34:30;99110.38;;;5.46;100.00
72640;BME280;60683;51.730;8.762;2024-03-02T01:37:16;99113.03;;;5.46;100.00
72640;BME280;60683;51.730;8.762;2024-03-02T01:40:01;99111.63;;;5.43;100.00
72640;BME280;60683;51.730;8.762;2024-03-02T01:42:47;99104.84;;;5.29;100.00
72640;BME280;60683;51.730;8.762;2024-03-02T01:45:33;99110.00;;;5.12;100.00
72640;BME280;60683;51.730;8.762;2024-03-02T01:48:19;99099.78;;;5.09;100.00
72640;BME280;60683;51.730;8.762;2024-03-02T01:51:06;99097.63;;;5.18;100.00
72640;BME280;60683;51.730;8.762;2024-03-02T01:53:51;99101.09;;;5.18;100.00
72640;BME280;60683;51.730;8.762;2024-03-02T01:56:37;99096.00;;;5.17;100.00
72640;BME280;60683;51.730;8.762;2024-03-02T01:59:22;99089.03;;;5.16;100.00
72640;BME280;60683;51.730;8.762;2024-03-02T02:02:08;99084.53;;;5.16;100.00
72640;BME280;60683;51.730;8.762;2024-03-02T02:04:54;99088.69;;;5.12;100.00
72640;BME280;60683;51.730;8.762;2024-03-02T02:07:41;99088.44;;;5.14;100.00
72640;BME280;60683;51.730;8.762;2024-03-02T02:10:27;99077.44;;;5.10;100.00
72640;BME280;60683;51.730;8.762;2024-03-02T02:13:12;99070.41;;;5.16;100.00
72640;BME280;60683;51.730;8.762;2024-03-02T02:16:04;99072.28;;;5.27;100.00
72640;BME280;60683;51.730;8.762;2024-03-02T02:18:49;99076.91;;;5.02;100.00
72640;BME280;60683;51.730;8.762;2024-03-02T02:21:36;99075.06;;;5.02;100.00
72640;BME280;60683;51.730;8.762;2024-03-02T02:24:21;99067.72;;;5.16;100.00
72640;BME280;60683;51.730;8.762;2024-03-02T02:27:07;99055.81;;;5.18;100.00
72640;BME280;60683;51.730;8.762;2024-03-02T02:29:52;99053.69;;;5.09;100.00
72640;BME280;60683;51.730;8.762;2024-03-02T02:32:38;99052.50;;;5.05;100.00
72640;BME280;60683;51.730;8.762;2024-03-02T02:35:23;99053.38;;;4.80;100.00
72640;BME280;60683;51.730;8.762;2024-03-02T02:38:10;99053.84;;;4.77;100.00
72640;BME280;60683;51.730;8.762;2024-03-02T02:40:55;99056.13;;;4.74;100.00
72640;BME280;60683;51.730;8.762;2024-03-02T02:43:40;99040.28;;;4.79;100.00
72640;BME280;60683;51.730;8.762;2024-03-02T02:46:25;99044.97;;;4.83;100.00
72640;BME280;60683;51.730;8.762;2024-03-02T02:49:11;99043.25;;;4.89;100.00
72640;BME280;60683;51.730;8.762;2024-03-02T02:51:57;99037.84;;;4.95;100.00
72640;BME280;60683;51.730;8.762;2024-03-02T02:54:43;99030.31;;;4.92;100.00
72640;BME280;60683;51.730;8.762;2024-03-02T02:57:29;99029.41;;;5.17;100.00
72640;BME280;60683;51.730;8.762;2024-03-02T03:00:19;99019.56;;;5.17;100.00
72640;BME280;60683;51.730;8.762;2024-03-02T03:03:06;99018.50;;;5.18;100.00
72640;BME280;60683;51.730;8.762;2024-03-02T03:05:51;99018.75;;;5.28;100.00
72640;BME280;60683;51.730;8.762;2024-03-02T03:08:36;99016.59;;;5.37;100.00
72640;BME280;60683;51.730;8.762;2024-03-02T03:11:23;99024.00;;;5.35;100.00
72640;BME280;60683;51.730;8.762;2024-03-02T03:14:10;99019.94;;;5.32;100.00
72640;BME280;60683;51.730;8.762;2024-03-02T03:16:55;99024.53;;;5.25;100.00
72640;BME280;60683;51.730;8.762;2024-03-02T03:19:40;99025.34;;;5.26;100.00
72640;BME280;60683;51.730;8.762;2024-03-02T03:22:26;99024.38;;;5.39;100.00
72640;BME280;60683;51.730;8.762;2024-03-02T03:25:11;99019.25;;;5.37;100.00
72640;BME280;60683;51.730;8.762;2024-03-02T03:27:58;99020.22;;;5.43;100.00
72640;BME280;60683;51.730;8.762;2024-03-02T03:30:44;99002.94;;;5.45;100.00
72640;BME280;60683;51.730;8.762;2024-03-02T03:33:29;99009.59;;;5.54;100.00
72640;BME280;60683;51.730;8.762;2024-03-02T03:36:15;99002.94;;;5.45;100.00
72640;BME280;60683;51.730;8.762;2024-03-02T03:39:00;99014.19;;;5.47;100.00
72640;BME280;60683;51.730;8.762;2024-03-02T03:41:47;99019.41;;;5.42;100.00
72640;BME280;60683;51.730;8.762;2024-03-02T03:44:34;99011.53;;;5.47;100.00
72640;BME280;60683;51.730;8.762;2024-03-02T03:47:19;99009.59;;;5.54;100.00
72640;BME280;60683;51.730;8.762;2024-03-02T03:50:06;99005.66;;;5.57;100.00
72640;BME280;60683;51.730;8.762;2024-03-02T03:52:51;99002.31;;;5.61;100.00
72640;BME280;60683;51.730;8.762;2024-03-02T03:55:37;99006.59;;;5.62;100.00
72640;BME280;60683;51.730;8.762;2024-03-02T03:58:22;99013.41;;;5.58;100.00
72640;BME280;60683;51.730;8.762;2024-03-02T04:01:09;99004.38;;;5.59;100.00
72640;BME280;60683;51.730;8.762;2024-03-02T04:03:54;99015.94;;;5.53;100.00
72640;BME280;60683;51.730;8.762;2024-03-02T04:06:39;99023.38;;;5.51;100.00
72640;BME280;60683;51.730;8.762;2024-03-02T04:09:24;99019.97;;;5.44;100.00
72640;BME280;60683;51.730;8.762;2024-03-02T04:12:10;99027.63;;;5.41;100.00
72640;BME280;60683;51.730;8.762;2024-03-02T04:14:56;99028.88;;;5.38;100.00
72640;BME280;60683;51.730;8.762;2024-03-02T04:17:43;99032.59;;;5.37;100.00
72640;BME280;60683;51.730;8.762;2024-03-02T04:20:29;99029.34;;;5.35;100.00
72640;BME280;60683;51.730;8.762;2024-03-02T04:23:14;99030.00;;;5.30;100.00
72640;BME280;60683;51.730;8.762;2024-03-02T04:26:00;99037.19;;;5.30;100.00
72640;BME280;60683;51.730;8.762;2024-03-02T04:28:45;99024.44;;;5.32;100.00
72640;BME280;60683;51.730;8.762;2024-03-02T04:31:30;99036.75;;;5.33;100.00
72640;BME280;60683;51.730;8.762;2024-03-02T04:34:18;99026.06;;;5.33;100.00
72640;BME280;60683;51.730;8.762;2024-03-02T04:37:03;99032.66;;;5.30;100.00
72640;BME280;60683;51.730;8.762;2024-03-02T04:39:48;99022.09;;;5.24;100.00
72640;BME280;60683;51.730;8.762;2024-03-02T04:42:33;99026.28;;;5.20;100.00
72640;BME280;60683;51.730;8.762;2024-03-02T04:45:18;99029.66;;;5.27;100.00
72640;BME280;60683;51.730;8.762;2024-03-02T04:48:04;99029.50;;;5.22;100.00
72640;BME280;60683;51.730;8.762;2024-03-02T04:50:51;99032.88;;;5.17;100.00
72640;BME280;60683;51.730;8.762;2024-03-02T04:53:37;99045.97;;;5.19;100.00
72640;BME280;60683;51.730;8.762;2024-03-02T04:56:22;99049.31;;;5.14;100.00
72640;BME280;60683;51.730;8.762;2024-03-02T04:59:28;99046.13;;;5.06;100.00
72640;BME280;60683;51.730;8.762;2024-03-02T05:02:14;99053.91;;;5.07;100.00
72640;BME280;60683;51.730;8.762;2024-03-02T05:04:59;99049.59;;;5.06;100.00
72640;BME280;60683;51.730;8.762;2024-03-02T05:07:46;99046.13;;;5.06;100.00
72640;BME280;60683;51.730;8.762;2024-03-02T05:10:32;99048.34;;;5.09;100.00
72640;BME280;60683;51.730;8.762;2024-03-02T05:13:17;99043.03;;;5.09;100.00
72640;BME280;60683;51.730;8.762;2024-03-02T05:16:03;99046.88;;;5.13;100.00
72640;BME280;60683;51.730;8.762;2024-03-02T05:18:48;99045.38;;;5.17;100.00
72640;BME280;60683;51.730;8.762;2024-03-02T05:21:35;99047.13;;;5.23;100.00
72640;BME280;60683;51.730;8.762;2024-03-02T05:24:21;99049.34;;;5.26;100.00
72640;BME280;60683;51.730;8.762;2024-03-02T05:27:06;99054.78;;;5.19;100.00
72640;BME280;60683;51.730;8.762;2024-03-02T05:29:51;99057.91;;;5.28;100.00
72640;BME280;60683;51.730;8.762;2024-03-02T05:32:37;99058.25;;;5.20;100.00
72640;BME280;60683;51.730;8.762;2024-03-02T05:35:22;99065.50;;;5.13;100.00
72640;BME280;60683;51.730;8.762;2024-03-02T05:38:08;99065.06;;;5.16;100.00
72640;BME280;60683;51.730;8.762;2024-03-02T05:40:54;99063.00;;;5.18;100.00
72640;BME280;60683;51.730;8.762;2024-03-02T05:43:39;99058.56;;;5.12;100.00
72640;BME280;60683;51.730;8.762;2024-03-02T05:46:25;99057.06;;;5.16;100.00
72640;BME280;60683;51.730;8.762;2024-03-02T05:49:10;99068.91;;;5.20;100.00
72640;BME280;60683;51.730;8.762;2024-03-02T05:51:56;99064.84;;;5.17;100.00
72640;BME280;60683;51.730;8.762;2024-03-02T05:54:41;99069.25;;;5.23;100.00
72640;BME280;60683;51.730;8.762;2024-03-02T05:57:28;99070.16;;;5.17;100.00
72640;BME280;60683;51.730;8.762;2024-03-02T06:00:29;99069.34;;;5.17;100.00
72640;BME280;60683;51.730;8.762;2024-03-02T06:03:15;99065.88;;;5.16;100.00
72640;BME280;60683;51.730;8.762;2024-03-02T06:06:00;99070.03;;;5.12;100.00
72640;BME280;60683;51.730;8.762;2024-03-02T06:08:45;99059.75;;;5.16;100.00
72640;BME280;60683;51.730;8.762;2024-03-02T06:11:31;99056.97;;;5.22;100.00
72640;BME280;60683;51.730;8.762;2024-03-02T06:14:18;99068.34;;;5.29;100.00
72640;BME280;60683;51.730;8.762;2024-03-02T06:17:03;99076.94;;;5.31;100.00
72640;BME280;60683;51.730;8.762;2024-03-02T06:19:49;99075.97;;;5.26;100.00
72640;BME280;60683;51.730;8.762;2024-03-02T06:22:35;99082.25;;;5.31;100.00
72640;BME280;60683;51.730;8.762;2024-03-02T06:25:20;99079.00;;;5.29;100.00
72640;BME280;60683;51.730;8.762;2024-03-02T06:28:05;99091.53;;;5.29;100.00
72640;BME280;60683;51.730;8.762;2024-03-02T06:30:52;99096.53;;;5.37;100.00
72640;BME280;60683;51.730;8.762;2024-03-02T06:33:38;99094.25;;;5.41;100.00
72640;BME280;60683;51.730;8.762;2024-03-02T06:36:23;99092.84;;;5.38;100.00
72640;BME280;60683;51.730;8.762;2024-03-02T06:39:10;99093.44;;;5.40;100.00
72640;BME280;60683;51.730;8.762;2024-03-02T06:41:56;99087.06;;;5.41;100.00
72640;BME280;60683;51.730;8.762;2024-03-02T06:44:42;99097.28;;;5.44;100.00
72640;BME280;60683;51.730;8.762;2024-03-02T06:47:28;99096.38;;;5.50;100.00
72640;BME280;60683;51.730;8.762;2024-03-02T06:50:14;99097.56;;;5.54;100.00
72640;BME280;60683;51.730;8.762;2024-03-02T06:52:59;99106.13;;;5.56;100.00
72640;BME280;60683;51.730;8.762;2024-03-02T06:55:45;99107.31;;;5.60;100.00
72640;BME280;60683;51.730;8.762;2024-03-02T06:58:30;99110.13;;;5.65;100.00
72640;BME280;60683;51.730;8.762;2024-03-02T07:01:16;99116.41;;;5.71;100.00
72640;BME280;60683;51.730;8.762;2024-03-02T07:04:03;99113.25;;;5.74;100.00
72640;BME280;60683;51.730;8.762;2024-03-02T07:06:50;99106.19;;;5.80;100.00
72640;BME280;60683;51.730;8.762;2024-03-02T07:09:36;99107.47;;;5.77;100.00
72640;BME280;60683;51.730;8.762;2024-03-02T07:12:21;99121.63;;;5.78;100.00
72640;BME280;60683;51.730;8.762;2024-03-02T07:15:07;99114.78;;;5.82;100.00
72640;BME280;60683;51.730;8.762;2024-03-02T07:18:09;99122.78;;;5.82;100.00
72640;BME280;60683;51.730;8.762;2024-03-02T07:20:55;99125.00;;;5.85;100.00
72640;BME280;60683;51.730;8.762;2024-03-02T07:23:42;99118.84;;;5.84;100.00
72640;BME280;60683;51.730;8.762;2024-03-02T07:26:28;99127.91;;;5.83;100.00
72640;BME280;60683;51.730;8.762;2024-03-02T07:29:14;99134.63;;;5.86;100.00
72640;BME280;60683;51.730;8.762;2024-03-02T07:31:59;99136.94;;;5.82;100.00
72640;BME280;60683;51.730;8.762;2024-03-02T07:34:45;99137.75;;;5.83;100.00
72640;BME280;60683;51.730;8.762;2024-03-02T07:37:32;99134.03;;;5.84;100.00
72640;BME280;60683;51.730;8.762;2024-03-02T07:40:18;99140.56;;;5.88;100.00
72640;BME280;60683;51.730;8.762;2024-03-02T07:43:04;99136.88;;;5.89;100.00
72640;BME280;60683;51.730;8.762;2024-03-02T07:45:50;99149.16;;;5.90;100.00
72640;BME280;60683;51.730;8.762;2024-03-02T07:48:35;99156.56;;;5.88;100.00
72640;BME280;60683;51.730;8.762;2024-03-02T07:51:20;99155.75;;;5.87;100.00
72640;BME280;60683;51.730;8.762;2024-03-02T07:54:07;99167.16;;;5.94;100.00
72640;BME280;60683;51.730;8.762;2024-03-02T07:56:52;99166.03;;;6.02;100.00
72640;BME280;60683;51.730;8.762;2024-03-02T07:59:38;99171.81;;;5.99;100.00
72640;BME280;60683;51.730;8.762;2024-03-02T08:02:23;99178.34;;;6.03;100.00
72640;BME280;60683;51.730;8.762;2024-03-02T08:05:08;99171.50;;;6.07;100.00
72640;BME280;60683;51.730;8.762;2024-03-02T08:07:54;99176.97;;;6.12;100.00
72640;BME280;60683;51.730;8.762;2024-03-02T08:10:42;99176.38;;;6.10;100.00
72640;BME280;60683;51.730;8.762;2024-03-02T08:13:27;99175.56;;;6.10;100.00
72640;BME280;60683;51.730;8.762;2024-03-02T08:16:13;99179.66;;;6.12;100.00
72640;BME280;60683;51.730;8.762;2024-03-02T08:18:59;99178.75;;;6.18;100.00
72640;BME280;60683;51.730;8.762;2024-03-02T08:21:44;99183.63;;;6.33;100.00
72640;BME280;60683;51.730;8.762;2024-03-02T08:24:29;99183.97;;;6.37;100.00
72640;BME280;60683;51.730;8.762;2024-03-02T08:27:15;99181.09;;;6.50;100.00
72640;BME280;60683;51.730;8.762;2024-03-02T08:30:01;99178.69;;;6.60;100.00
72640;BME280;60683;51.730;8.762;2024-03-02T08:32:50;99175.44;;;6.70;100.00
72640;BME280;60683;51.730;8.762;2024-03-02T08:35:35;99171.59;;;6.89;100.00
72640;BME280;60683;51.730;8.762;2024-03-02T08:38:20;99171.47;;;7.07;100.00
72640;BME280;60683;51.730;8.762;2024-03-02T08:41:06;99164.03;;;7.21;100.00
72640;BME280;60683;51.730;8.762;2024-03-02T08:43:54;99178.63;;;7.42;100.00
72640;BME280;60683;51.730;8.762;2024-03-02T08:46:40;99184.19;;;7.52;100.00
72640;BME280;60683;51.730;8.762;2024-03-02T08:49:25;99182.88;;;7.66;100.00
72640;BME280;60683;51.730;8.762;2024-03-02T08:52:10;99184.94;;;7.76;100.00
72640;BME280;60683;51.730;8.762;2024-03-02T08:54:55;99181.13;;;7.88;100.00
72640;BME280;60683;51.730;8.762;2024-03-02T08:57:40;99187.50;;;7.99;100.00
72640;BME280;60683;51.730;8.762;2024-03-02T09:00:28;99179.19;;;8.12;99.07
72640;BME280;60683;51.730;8.762;2024-03-02T09:03:14;99175.88;;;8.22;98.47
72640;BME280;60683;51.730;8.762;2024-03-02T09:06:00;99172.47;;;8.26;97.96
72640;BME280;60683;51.730;8.762;2024-03-02T09:08:45;99173.75;;;8.24;97.69
72640;BME280;60683;51.730;8.762;2024-03-02T09:11:31;99175.72;;;8.28;97.70
72640;BME280;60683;51.730;8.762;2024-03-02T09:14:17;99163.81;;;8.36;96.67
72640;BME280;60683;51.730;8.762;2024-03-02T09:17:05;99169.25;;;8.41;96.45
72640;BME280;60683;51.730;8.762;2024-03-02T09:19:50;99172.34;;;8.50;95.96
72640;BME280;60683;51.730;8.762;2024-03-02T09:22:36;99176.47;;;8.57;95.03
72640;BME280;60683;51.730;8.762;2024-03-02T09:25:22;99171.53;;;8.66;94.80
72640;BME280;60683;51.730;8.762;2024-03-02T09:28:07;99179.91;;;8.70;93.68
72640;BME280;60683;51.730;8.762;2024-03-02T09:30:53;99170.19;;;8.85;92.50
72640;BME280;60683;51.730;8.762;2024-03-02T09:33:39;99164.19;;;8.95;91.90
72640;BME280;60683;51.730;8.762;2024-03-02T09:36:25;99175.63;;;9.07;91.05
72640;BME280;60683;51.730;8.762;2024-03-02T09:39:10;99166.03;;;9.11;91.93
72640;BME280;60683;51.730;8.762;2024-03-02T09:41:56;99156.56;;;9.25;90.83
72640;BME280;60683;51.730;8.762;2024-03-02T09:44:42;99158.00;;;9.33;90.19
72640;BME280;60683;51.730;8.762;2024-03-02T09:47:28;99158.38;;;9.42;88.65
72640;BME280;60683;51.730;8.762;2024-03-02T09:50:15;99158.75;;;9.50;88.52
72640;BME280;60683;51.730;8.762;2024-03-02T09:53:00;99158.81;;;9.55;87.65
72640;BME280;60683;51.730;8.762;2024-03-02T09:55:46;99156.88;;;9.73;85.46
72640;BME280;60683;51.730;8.762;2024-03-02T09:58:31;99165.72;;;9.73;84.72
72640;BME280;60683;51.730;8.762;2024-03-02T10:01:16;99172.84;;;9.84;84.57
72640;BME280;60683;51.730;8.762;2024-03-02T10:04:02;99162.47;;;9.71;84.11
72640;BME280;60683;51.730;8.762;2024-03-02T10:06:49;99161.84;;;9.86;84.39
72640;BME280;60683;51.730;8.762;2024-03-02T10:09:34;99172.03;;;9.84;83.53
72640;BME280;60683;51.730;8.762;2024-03-02T10:12:20;99159.44;;;9.89;83.35
72640;BME280;60683;51.730;8.762;2024-03-02T10:15:07;99160.22;;;9.85;84.40
72640;BME280;60683;51.730;8.762;2024-03-02T10:17:53;99157.47;;;10.07;83.28
72640;BME280;60683;51.730;8.762;2024-03-02T10:20:39;99151.41;;;10.16;81.93
72640;BME280;60683;51.730;8.762;2024-03-02T10:23:26;99154.97;;;10.22;82.85
72640;BME280;60683;51.730;8.762;2024-03-02T10:26:16;99147.59;;;10.39;81.25
72640;BME280;60683;51.730;8.762;2024-03-02T10:29:01;99145.28;;;10.53;81.07
72640;BME280;60683;51.730;8.762;2024-03-02T10:31:47;99151.84;;;10.67;79.43
72640;BME280;60683;51.730;8.762;2024-03-02T10:34:32;99140.53;;;10.65;80.02
72640;BME280;60683;51.730;8.762;2024-03-02T10:37:18;99142.50;;;10.75;79.32
72640;BME280;60683;51.730;8.762;2024-03-02T10:40:08;99145.56;;;10.93;77.49
72640;BME280;60683;51.730;8.762;2024-03-02T10:42:55;99143.13;;;10.92;77.86
72640;BME280;60683;51.730;8.762;2024-03-02T10:45:42;99149.09;;;10.99;78.19
72640;BME280;60683;51.730;8.762;2024-03-02T10:48:28;99146.19;;;11.11;76.76
72640;BME280;60683;51.730;8.762;2024-03-02T10:51:14;99145.78;;;11.34;75.54
72640;BME280;60683;51.730;8.762;2024-03-02T10:54:00;99139.59;;;11.34;74.91
72640;BME280;60683;51.730;8.762;2024-03-02T10:56:47;99140.69;;;11.38;74.41
72640;BME280;60683;51.730;8.762;2024-03-02T10:59:34;99139.13;;;11.57;73.97
72640;BME280;60683;51.730;8.762;2024-03-02T11:02:21;99134.03;;;11.60;72.58
72640;BME280;60683;51.730;8.762;2024-03-02T11:05:08;99135.94;;;11.70;72.05
72640;BME280;60683;51.730;8.762;2024-03-02T11:07:58;99139.78;;;11.84;71.10
72640;BME280;60683;51.730;8.762;2024-03-02T11:10:50;99136.31;;;11.99;69.59
72640;BME280;60683;51.730;8.762;2024-03-02T11:13:38;99137.66;;;12.12;68.31
72640;BME280;60683;51.730;8.762;2024-03-02T11:16:31;99134.19;;;12.21;67.40
72640;BME280;60683;51.730;8.762;2024-03-02T11:19:19;99134.19;;;12.32;67.65
72640;BME280;60683;51.730;8.762;2024-03-02T11:22:05;99141.47;;;12.36;66.37
72640;BME280;60683;51.730;8.762;2024-03-02T11:24:52;99132.59;;;12.41;66.04
72640;BME280;60683;51.730;8.762;2024-03-02T11:27:58;99133.66;;;12.45;65.47
72640;BME280;60683;51.730;8.762;2024-03-02T11:30:52;99131.50;;;12.47;65.43
72640;BME280;60683;51.730;8.762;2024-03-02T11:33:37;99124.19;;;12.63;66.46
72640;BME280;60683;51.730;8.762;2024-03-02T11:36:22;99122.00;;;12.95;63.00
72640;BME280;60683;51.730;8.762;2024-03-02T11:39:09;99116.81;;;13.09;61.62
72640;BME280;60683;51.730;8.762;2024-03-02T11:41:55;99118.91;;;13.37;61.34
72640;BME280;60683;51.730;8.762;2024-03-02T11:44:43;99123.16;;;13.53;60.89
72640;BME280;60683;51.730;8.762;2024-03-02T11:47:31;99119.28;;;13.70;60.59
72640;BME280;60683;51.730;8.762;2024-03-02T11:50:28;99130.53;;;13.33;59.76
72640;BME280;60683;51.730;8.762;2024-03-02T11:53:14;99129.22;;;13.15;61.00
72640;BME280;60683;51.730;8.762;2024-03-02T11:56:01;99125.25;;;12.87;61.41
72640;BME280;60683;51.730;8.762;2024-03-02T11:58:46;99122.31;;;12.78;63.03
72640;BME280;60683;51.730;8.762;2024-03-02T12:01:34;99119.63;;;12.63;63.62
72640;BME280;60683;51.730;8.762;2024-03-02T12:04:21;99126.34;;;12.60;63.48
72640;BME280;60683;51.730;8.762;2024-03-02T12:07:07;99120.16;;;12.70;62.62
72640;BME280;60683;51.730;8.762;2024-03-02T12:09:59;99115.28;;;12.77;62.37
72640;BME280;60683;51.730;8.762;2024-03-02T12:12:45;99113.66;;;12.81;61.87
72640;BME280;60683;51.730;8.762;2024-03-02T12:15:31;99112.59;;;12.82;61.49
72640;BME280;60683;51.730;8.762;2024-03-02T12:18:16;99110.97;;;12.81;61.58
72640;BME280;60683;51.730;8.762;2024-03-02T12:21:04;99113.94;;;12.80;61.68
72640;BME280;60683;51.730;8.762;2024-03-02T12:23:52;99125.53;;;12.80;61.98
72640;BME280;60683;51.730;8.762;2024-03-02T12:26:38;99120.13;;;12.75;62.51
72640;BME280;60683;51.730;8.762;2024-03-02T12:29:24;99112.88;;;12.60;62.49
72640;BME280;60683;51.730;8.762;2024-03-02T12:32:09;99114.53;;;12.46;64.28
72640;BME280;60683;51.730;8.762;2024-03-02T12:34:55;99104.25;;;12.53;63.30
72640;BME280;60683;51.730;8.762;2024-03-02T12:37:45;99104.66;;;13.11;59.97
72640;BME280;60683;51.730;8.762;2024-03-02T12:40:31;99102.06;;;13.61;57.57
72640;BME280;60683;51.730;8.762;2024-03-02T12:43:16;99105.53;;;14.10;54.87
72640;BME280;60683;51.730;8.762;2024-03-02T12:46:03;99093.25;;;14.57;53.33
72640;BME280;60683;51.730;8.762;2024-03-02T12:48:48;99091.97;;;14.78;51.88
72640;BME280;60683;51.730;8.762;2024-03-02T12:51:35;99084.97;;;14.77;50.90
72640;BME280;60683;51.730;8.762;2024-03-02T12:54:22;99083.81;;;14.83;51.10
72640;BME280;60683;51.730;8.762;2024-03-02T12:57:08;99085.38;;;14.89;51.53
72640;BME280;60683;51.730;8.762;2024-03-02T12:59:57;99082.38;;;15.15;50.52
72640;BME280;60683;51.730;8.762;2024-03-02T13:02:43;99080.47;;;15.15;50.09
72640;BME280;60683;51.730;8.762;2024-03-02T13:05:30;99078.28;;;15.17;50.03
72640;BME280;60683;51.730;8.762;2024-03-02T13:08:16;99072.16;;;15.31;49.95
72640;BME280;60683;51.730;8.762;2024-03-02T13:11:03;99073.66;;;15.18;50.77
72640;BME280;60683;51.730;8.762;2024-03-02T13:13:50;99067.91;;;15.67;49.40
72640;BME280;60683;51.730;8.762;2024-03-02T13:16:38;99064.00;;;15.54;50.61
72640;BME280;60683;51.730;8.762;2024-03-02T13:19:24;99060.97;;;15.37;49.71
72640;BME280;60683;51.730;8.762;2024-03-02T13:22:09;99066.81;;;15.26;49.49
72640;BME280;60683;51.730;8.762;2024-03-02T13:24:55;99056.22;;;15.29;49.01
72640;BME280;60683;51.730;8.762;2024-03-02T13:27:43;99053.44;;;15.34;48.52
72640;BME280;60683;51.730;8.762;2024-03-02T13:30:29;99051.09;;;15.28;48.24
72640;BME280;60683;51.730;8.762;2024-03-02T13:33:14;99050.16;;;15.13;48.84
72640;BME280;60683;51.730;8.762;2024-03-02T13:36:00;99048.50;;;15.17;48.75
72640;BME280;60683;51.730;8.762;2024-03-02T13:38:45;99046.06;;;15.16;48.59
72640;BME280;60683;51.730;8.762;2024-03-02T13:41:30;99041.63;;;15.25;48.50
72640;BME280;60683;51.730;8.762;2024-03-02T13:44:17;99035.88;;;15.08;48.77
72640;BME280;60683;51.730;8.762;2024-03-02T13:47:03;99039.72;;;15.07;48.48
72640;BME280;60683;51.730;8.762;2024-03-02T13:49:48;99037.53;;;15.28;48.17
72640;BME280;60683;51.730;8.762;2024-03-02T13:52:34;99037.31;;;15.05;48.78
72640;BME280;60683;51.730;8.762;2024-03-02T13:55:19;99040.31;;;15.04;48.45
72640;BME280;60683;51.730;8.762;2024-03-02T13:58:05;99041.41;;;15.03;48.44
72640;BME280;60683;51.730;8.762;2024-03-02T14:00:51;99038.81;;;14.93;48.69
72640;BME280;60683;51.730;8.762;2024-03-02T14:03:37;99034.78;;;15.09;49.08
72640;BME280;60683;51.730;8.762;2024-03-02T14:06:22;99031.44;;;15.17;48.62
72640;BME280;60683;51.730;8.762;2024-03-02T14:09:08;99035.88;;;15.08;48.39
72640;BME280;60683;51.730;8.762;2024-03-02T14:11:53;99038.31;;;15.09;48.32
72640;BME280;60683;51.730;8.762;2024-03-02T14:14:39;99036.91;;;14.93;48.22
72640;BME280;60683;51.730;8.762;2024-03-02T14:17:26;99032.88;;;14.90;48.21
72640;BME280;60683;51.730;8.762;2024-03-02T14:20:12;99033.63;;;14.96;48.18
72640;BME280;60683;51.730;8.762;2024-03-02T14:22:57;99039.84;;;14.97;47.89
72640;BME280;60683;51.730;8.762;2024-03-02T14:25:43;99030.03;;;14.77;47.82
72640;BME280;60683;51.730;8.762;2024-03-02T14:28:28;99037.72;;;14.94;47.98
72640;BME280;60683;51.730;8.762;2024-03-02T14:31:13;99032.41;;;14.83;47.78
72640;BME280;60683;51.730;8.762;2024-03-02T14:34:00;99024.56;;;14.82;47.96
72640;BME280;60683;51.730;8.762;2024-03-02T14:36:45;99022.38;;;14.60;47.76
72640;BME280;60683;51.730;8.762;2024-03-02T14:39:31;99021.34;;;14.80;48.30
72640;BME280;60683;51.730;8.762;2024-03-02T14:42:18;99018.41;;;14.76;48.12